Language selection

My Weather Profile Weather Topics  | 

Northeast Gulf: Past 24 Hour Conditions

 

West Chedabucto Bay - 44489

04:00 PM AST 28 November 2022Buoy position: 45.49N 61.14W
Disclaimer

This table is a summary of hourly weather conditions for the past 24 hours.
Please note that these observations might not always be representative of weather conditions over their associated marine area.

Date / Time
(AST)
Wind(knots) Wave height(m) Wave period(s) Pressure(kPa) Air tempC) Water tempC)
28 November 2022
16:00 NW 25 gust 30 0.9 3.5 99.0 6 8
15:00 NW 21 gust 26 0.6 4.0 98.8 8 8
14:00 WNW 15 gust 20 0.7 5.3 98.6 10 8
13:00 WNW 18 gust 24 0.9 5.7 98.4 10 8
12:00 SW 16 gust 18 1.0 5.1 98.3 10 8
11:00 SW 18 gust 22 1.3 4.6 98.3 10 8
10:00 SW 27 gust 34 1.2 4.0 98.3 12 8
9:00 SE 21 gust 29 0.8 5.0 98.5 9 8
8:00 ESE 18 gust 22 0.7 5.6 98.9 8 8
7:00 ESE 12 gust 13 0.6 6.9 99.2 8 8
6:00 SE 12 gust 14 0.6 6.6 99.4 8 8
5:00 SE 11 gust 12 0.7 8.2 99.7 8 8
4:00 SSE 10 gust 13 0.7 8.7 99.8 8 8
3:00 SE 10 gust 11 0.6 9.2 100.0 8 8
2:00 SSE 10 gust 13 0.7 8.5 100.1 8 8
1:00 SSW 9 gust 11 0.7 8.7 100.2 8 8
0:00 SW 16 gust 18 0.7 7.4 100.3 7 8
27 November 2022
23:00 SW 13 gust 16 0.7 8.6 100.4 7 8
22:00 SW 12 gust 15 0.7 6.7 100.4 6 8
21:00 SW 15 gust 17 0.8 10.6 100.5 6 8
20:00 SW 10 gust 12 0.8 11.7 100.5 6 8
19:00 WSW 5 gust 6 0.8 11.7 100.5 6 8
18:00 NW 5 gust 7 0.8 11.7 100.6 5 8
17:00 WNW 10 gust 12 0.8 11.5 100.6 6 8
16:00 NW 11 gust 13 0.7 10.1 100.6 5 8

Zoom-in to make a selection

Map of Atlantic - Newfoundland marine weather areas Banquereau - 44139 East Chedabucto Bay - 44488 West Chedabucto Bay - 44489 Blanc-Sablon Airport Cap Whittle Chevery Natashquan Airport Heath Point Îles de la Madeleine Airport Miscou Island Eskasoni (First Nations) Grand Étang Ingonish Beach North Mountain St.Paul Island J.A. Douglas McCurdy Sydney Airport Charlottetown Airport East Point North Cape Argentia Berry Hill Bonavista Burgeo Cape Race Corner Brook Daniel's Harbour Englee Ferolle Point La Scie Port aux Basques Sagona Island St. Anthony Airport St. John's Int'l Airport St. Lawrence Stephenville Airport Twillingate Winterland Branch Hill Wreckhouse Grates Cove Pool's Island Marticot Island Long Pond Cartwright Airport Mary's Harbour
Legend:
buoy Buoy
land station Land Station

Atlantic - Newfoundland Area

Another Region

What we are doing

Date modified: